Time;durP1;ratioP1;P1;durP2;ratioP2;P2;SDS_P1;SDS_P2;PMS_P1;PMS_P2;Temp;Humidity;BMP_temperature;BMP_pressure;BME280_temperature;BME280_humidity;BME280_pressure;Samples;Min_cycle;Max_cycle;Signal;HPM_P1;HPM_P2
2022/09/21 00:01:16;;;;;;;4.70;4.30;;;;;;;11.00;72.71;94996.50;5054239;28;20554;-86
2022/09/21 00:03:44;;;;;;;4.40;4.10;;;;;;;10.97;73.14;95004.63;5054290;28;20934;-87
2022/09/21 00:06:13;;;;;;;4.93;4.20;;;;;;;10.95;73.34;95001.28;5054540;28;20455;-86
2022/09/21 00:08:40;;;;;;;4.00;3.70;;;;;;;11.00;72.92;95011.44;5054078;28;20443;-87
2022/09/21 00:11:07;;;;;;;4.40;4.00;;;;;;;10.95;72.68;95001.28;5054337;28;20452;-86
2022/09/21 00:13:36;;;;;;;4.37;4.07;;;;;;;10.99;72.86;95002.72;5054079;28;20544;-86
2022/09/21 00:16:07;;;;;;;7.17;4.63;;;;;;;11.02;72.68;95005.09;5053702;28;20480;-87
2022/09/21 00:18:35;;;;;;;5.00;4.60;;;;;;;11.05;72.61;95006.63;5053967;28;20463;-86
2022/09/21 00:21:02;;;;;;;7.07;3.90;;;;;;;10.97;72.13;95015.13;5054317;28;20453;-87
2022/09/21 00:23:29;;;;;;;4.03;3.73;;;;;;;10.95;72.70;95010.97;5054082;28;20456;-87
2022/09/21 00:26:05;;;;;;;5.57;5.03;;;;;;;10.98;72.88;95014.16;5054443;28;20474;-85
2022/09/21 00:28:32;;;;;;;5.67;5.17;;;;;;;11.02;72.71;95012.97;5053940;28;20858;-87
2022/09/21 00:31:02;;;;;;;5.70;5.20;;;;;;;11.00;71.51;95000.94;5053510;28;20461;-87
2022/09/21 00:33:31;;;;;;;5.33;4.87;;;;;;;11.07;72.92;95010.78;5053945;28;20809;-87
2022/09/21 00:36:02;;;;;;;5.50;5.03;;;;;;;11.07;72.78;94997.66;5053641;28;20996;-87
2022/09/21 00:38:29;;;;;;;6.90;5.00;;;;;;;11.10;72.39;94997.38;5053772;28;20487;-88
2022/09/21 00:40:56;;;;;;;5.33;4.67;;;;;;;11.10;73.01;94999.19;5053845;28;20432;-86
2022/09/21 00:43:23;;;;;;;4.47;4.07;;;;;;;11.08;73.14;94990.59;5053421;28;20456;-87
2022/09/21 00:45:54;;;;;;;5.20;4.80;;;;;;;11.02;72.68;94981.47;5053787;28;20460;-86
2022/09/21 00:48:21;;;;;;;5.77;5.30;;;;;;;11.14;73.00;94996.16;5053649;28;20456;-85
2022/09/21 00:50:54;;;;;;;5.67;5.00;;;;;;;11.17;73.16;94989.81;5053136;28;20962;-87
2022/09/21 00:53:22;;;;;;;5.40;4.90;;;;;;;11.15;72.87;94995.19;5053953;28;20475;-87
2022/09/21 00:55:52;;;;;;;6.13;4.90;;;;;;;11.06;72.80;94992.53;5053136;28;20480;-87
2022/09/21 00:58:23;;;;;;;5.40;4.90;;;;;;;10.94;73.47;94989.13;5053397;28;20809;-86
2022/09/21 01:00:50;;;;;;;11.13;5.43;;;;;;;10.88;73.59;94996.69;5053145;28;20559;-87
2022/09/21 01:03:17;;;;;;;6.20;5.20;;;;;;;10.90;74.23;94994.78;5053938;28;20859;-87
2022/09/21 01:05:44;;;;;;;7.80;5.87;;;;;;;10.83;74.57;94991.84;5052611;28;20851;-86
2022/09/21 01:08:15;;;;;;;10.27;6.87;;;;;;;10.82;75.15;94991.00;5053141;28;20459;-87
2022/09/21 01:10:56;;;;;;;6.97;6.00;;;;;;;10.81;75.51;94999.00;5052743;28;20441;-87
2022/09/21 01:13:38;;;;;;;7.07;6.40;;;;;;;10.78;75.26;94989.59;5053470;28;20452;-87
2022/09/21 01:16:12;;;;;;;14.77;7.47;;;;;;;10.78;75.62;94996.66;5053151;28;20491;-87
2022/09/21 01:18:46;;;;;;;7.93;5.50;;;;;;;10.76;75.85;94988.91;5052984;28;20972;-86
2022/09/21 01:21:18;;;;;;;6.13;5.47;;;;;;;10.69;75.94;94984.28;5053267;28;20478;-87
2022/09/21 01:24:23;;;;;;;6.73;5.70;;;;;;;10.62;76.94;94978.72;5053115;28;20447;-87
2022/09/21 01:27:09;;;;;;;6.10;5.60;;;;;;;10.60;77.51;94980.63;5053316;28;20442;-87
2022/09/21 01:29:43;;;;;;;7.40;5.07;;;;;;;10.46;77.30;94984.41;5053167;28;20435;-87
2022/09/21 01:32:14;;;;;;;6.10;5.50;;;;;;;10.57;77.34;94994.00;5052755;28;20443;-87
2022/09/21 01:34:49;;;;;;;8.60;6.20;;;;;;;10.54;76.65;94982.00;5052681;28;20448;-87
2022/09/21 01:37:20;;;;;;;6.47;5.87;;;;;;;10.55;77.45;94978.41;5052730;28;21008;-88
2022/09/21 01:39:53;;;;;;;8.80;6.27;;;;;;;10.58;77.66;94965.97;5052470;28;20966;-87
2022/09/21 01:42:22;;;;;;;9.83;5.73;;;;;;;10.62;76.75;94977.88;5053088;28;20512;-87
2022/09/21 01:44:50;;;;;;;13.00;5.90;;;;;;;10.60;77.60;94964.06;5053475;28;20505;-87
2022/09/21 01:47:18;;;;;;;7.27;6.57;;;;;;;10.65;77.29;94967.13;5052895;28;20446;-86
2022/09/21 01:49:51;;;;;;;8.90;6.53;;;;;;;10.67;77.38;94971.28;5052768;28;20825;-86
2022/09/21 01:52:26;;;;;;;7.40;6.80;;;;;;;10.73;76.97;94975.22;5052811;28;20450;-87
2022/09/21 01:54:59;;;;;;;10.87;5.90;;;;;;;10.74;76.94;94967.22;5050711;28;20441;-87
2022/09/21 01:57:34;;;;;;;7.10;6.40;;;;;;;10.75;77.03;94960.16;5052829;28;20447;-87
2022/09/21 02:00:04;;;;;;;6.97;6.27;;;;;;;10.82;76.95;94977.88;5052473;28;20480;-86
2022/09/21 02:02:37;;;;;;;9.03;6.23;;;;;;;10.83;76.41;94973.47;5053049;28;20465;-86
2022/09/21 02:05:06;;;;;;;6.87;5.70;;;;;;;10.77;76.11;94971.38;5052622;28;20446;-86
2022/09/21 02:07:34;;;;;;;9.63;5.67;;;;;;;10.65;77.35;94967.97;5052886;28;20462;-87
2022/09/21 02:10:02;;;;;;;7.73;6.93;;;;;;;10.64;77.40;94971.53;5052611;28;20491;-86
2022/09/21 02:12:31;;;;;;;8.17;6.80;;;;;;;10.60;77.32;94967.50;5052435;28;20562;-87
2022/09/21 02:15:00;;;;;;;7.20;6.50;;;;;;;10.59;77.98;94967.66;5052318;28;20876;-87
2022/09/21 02:17:38;;;;;;;7.33;6.63;;;;;;;10.57;77.86;94969.56;5054934;28;20503;-86
2022/09/21 02:20:17;;;;;;;8.80;5.80;;;;;;;10.52;77.68;94972.59;5056258;28;20479;-87
2022/09/21 02:22:57;;;;;;;6.40;5.80;;;;;;;10.37;77.88;94977.28;5022019;28;20446;-87
2022/09/21 02:25:33;;;;;;;13.13;7.50;;;;;;;10.34;78.21;94980.16;5056250;28;20449;-86
2022/09/21 02:28:08;;;;;;;12.30;8.43;;;;;;;10.37;79.74;94971.22;5056120;28;20458;-85
2022/09/21 02:30:37;;;;;;;10.37;8.30;;;;;;;10.34;80.14;94990.66;5055999;28;20953;-87
2022/09/21 02:33:11;;;;;;;7.10;6.40;;;;;;;10.24;79.17;94987.13;5056080;28;21012;-86
2022/09/21 02:35:43;;;;;;;6.97;6.33;;;;;;;10.22;80.00;94986.44;5055866;28;20478;-86
2022/09/21 02:38:19;;;;;;;9.23;6.10;;;;;;;10.23;79.68;94988.94;5055920;28;20454;-87
2022/09/21 02:40:53;;;;;;;8.43;6.50;;;;;;;10.28;79.98;94988.56;5055949;28;20458;-86
2022/09/21 02:43:28;;;;;;;6.53;5.93;;;;;;;10.30;79.76;94989.25;5055873;28;20449;-86
2022/09/21 02:45:59;;;;;;;8.63;6.67;;;;;;;10.33;79.38;94996.03;5055722;28;20479;-86
2022/09/21 02:48:32;;;;;;;7.30;6.67;;;;;;;10.34;79.49;94988.03;5055187;28;20489;-86
2022/09/21 02:51:06;;;;;;;9.47;6.90;;;;;;;10.36;78.98;94983.50;5056195;28;20462;-86
2022/09/21 02:53:36;;;;;;;8.40;7.53;;;;;;;10.40;79.10;94994.56;5055914;28;20449;-87
2022/09/21 02:56:06;;;;;;;7.23;6.63;;;;;;;10.43;78.87;94994.34;5055586;28;20881;-86
2022/09/21 02:58:37;;;;;;;7.00;6.40;;;;;;;10.41;78.70;94986.59;5055776;28;20451;-87
2022/09/21 03:01:07;;;;;;;9.20;5.83;;;;;;;10.38;78.63;94989.44;5055293;28;20485;-87
2022/09/21 03:03:35;;;;;;;6.47;5.87;;;;;;;10.32;78.83;94997.81;5055693;28;20951;-87
2022/09/21 03:06:02;;;;;;;7.40;5.80;;;;;;;10.25;79.22;94991.44;5055558;28;20452;-87
2022/09/21 03:08:30;;;;;;;7.03;6.40;;;;;;;10.20;79.54;94991.81;5055513;28;20912;-86
2022/09/21 03:10:57;;;;;;;6.17;5.30;;;;;;;10.17;79.24;94999.06;5055340;28;20458;-86
2022/09/21 03:13:24;;;;;;;8.17;6.13;;;;;;;10.14;79.65;94999.31;5055309;28;20463;-86
2022/09/21 03:15:59;;;;;;;8.20;5.50;;;;;;;10.10;80.07;94987.38;5055367;28;20506;-86
2022/09/21 03:18:26;;;;;;;7.87;6.00;;;;;;;10.10;80.13;94987.38;5055166;28;20444;-86
2022/09/21 03:20:55;;;;;;;7.57;5.70;;;;;;;10.10;80.31;94993.47;5055307;28;20461;-86
2022/09/21 03:23:22;;;;;;;9.30;6.17;;;;;;;10.09;80.00;94986.56;5054929;28;20867;-87
2022/09/21 03:25:51;;;;;;;6.63;6.03;;;;;;;10.09;80.12;94985.72;5054919;28;20464;-87
2022/09/21 03:28:18;;;;;;;8.33;5.70;;;;;;;10.05;79.49;94982.53;5054758;28;20540;-88
2022/09/21 03:30:45;;;;;;;8.70;7.10;;;;;;;10.01;79.67;94990.75;5053451;28;20460;-87
2022/09/21 03:33:12;;;;;;;12.10;6.30;;;;;;;9.91;79.72;95001.16;5054149;28;20959;-87
2022/09/21 03:35:39;;;;;;;7.73;6.50;;;;;;;9.88;79.66;94994.38;5050208;28;20470;-86
2022/09/21 03:38:08;;;;;;;12.17;10.03;;;;;;;9.80;79.71;94986.28;5057661;28;20451;-86
2022/09/21 03:40:35;;;;;;;11.97;10.73;;;;;;;9.82;80.32;94994.84;5054344;28;20856;-85
2022/09/21 03:43:02;;;;;;;29.90;20.70;;;;;;;9.80;80.53;94999.38;5049956;28;20459;-87
2022/09/21 03:45:29;;;;;;;25.43;20.37;;;;;;;9.73;80.58;94998.22;5051254;28;20446;-86
2022/09/21 03:47:57;;;;;;;17.20;12.50;;;;;;;9.65;80.51;94997.19;5066157;28;20445;-87
2022/09/21 03:50:27;;;;;;;23.47;14.57;;;;;;;9.57;81.60;94996.00;5056852;28;20481;-86
2022/09/21 03:52:54;;;;;;;16.47;8.27;;;;;;;9.53;81.36;94998.97;5054634;28;20540;-88
2022/09/21 03:55:23;;;;;;;10.10;8.47;;;;;;;9.49;81.53;95003.59;5054173;28;20438;-86
2022/09/21 03:57:49;;;;;;;9.60;8.60;;;;;;;9.51;81.96;95006.09;5054671;28;20472;-89
2022/09/21 04:00:17;;;;;;;9.73;7.60;;;;;;;9.51;81.50;95003.50;5051288;28;20989;-86
2022/09/21 04:02:44;;;;;;;12.93;8.30;;;;;;;9.54;82.19;95003.25;5056334;28;20804;-88
2022/09/21 04:05:14;;;;;;;8.30;7.47;;;;;;;9.51;82.38;94998.25;5056216;28;20453;-87
2022/09/21 04:07:44;;;;;;;8.93;7.80;;;;;;;9.54;81.12;94998.00;5055954;28;20481;-90
2022/09/21 04:10:13;;;;;;;9.47;7.30;;;;;;;9.47;81.67;94984.56;5056122;28;20464;-87
2022/09/21 04:12:42;;;;;;;9.37;8.40;;;;;;;9.57;81.73;95003.88;5055439;28;20450;-86
2022/09/21 04:15:10;;;;;;;12.30;7.57;;;;;;;9.49;81.69;95002.78;5055669;28;20434;-88
2022/09/21 04:17:37;;;;;;;16.73;8.43;;;;;;;9.47;81.86;95000.28;5055510;28;20482;-89
2022/09/21 04:20:05;;;;;;;11.00;8.10;;;;;;;9.41;81.56;95010.41;5055468;28;20455;-85
2022/09/21 04:22:32;;;;;;;11.70;8.40;;;;;;;9.38;81.82;95002.78;5055436;28;20457;-91
2022/09/21 04:25:00;;;;;;;11.07;7.60;;;;;;;9.37;82.13;95006.38;5055024;28;20445;-87
2022/09/21 04:27:27;;;;;;;17.63;7.90;;;;;;;9.36;82.05;95007.31;5056485;28;20464;-87
2022/09/21 04:29:55;;;;;;;21.00;8.17;;;;;;;9.35;82.60;95006.50;5055206;28;21007;-87
2022/09/21 04:32:22;;;;;;;14.63;7.70;;;;;;;9.33;83.33;95005.78;5054977;28;20458;-87
2022/09/21 04:34:49;;;;;;;9.40;7.00;;;;;;;9.36;83.56;95012.56;5055660;28;20476;-88
2022/09/21 04:37:16;;;;;;;7.63;5.90;;;;;;;9.44;84.89;95013.63;5054650;28;20481;-87
2022/09/21 04:39:43;;;;;;;26.40;6.40;;;;;;;9.53;84.75;95012.88;5054447;28;20450;-90
2022/09/21 04:42:10;;;;;;;22.50;6.07;;;;;;;9.61;84.48;95001.81;5055346;28;20461;-88
2022/09/21 04:44:37;;;;;;;11.60;6.00;;;;;;;9.72;84.30;95007.03;5054866;28;20480;-88
2022/09/21 04:47:09;;;;;;;8.60;5.47;;;;;;;9.80;85.03;95003.78;5054432;28;20451;-88
2022/09/21 04:49:37;;;;;;;4.73;4.33;;;;;;;9.91;84.70;95009.88;5054253;28;20450;-87
2022/09/21 04:52:04;;;;;;;4.73;4.43;;;;;;;9.94;84.44;95009.63;5054421;28;20938;-87
2022/09/21 04:54:31;;;;;;;4.83;4.33;;;;;;;10.07;84.93;95014.69;5054531;28;20447;-89
2022/09/21 04:56:58;;;;;;;4.80;4.30;;;;;;;10.11;84.09;95013.47;5055210;28;20483;-89
2022/09/21 04:59:25;;;;;;;5.23;4.63;;;;;;;10.01;83.30;95009.94;5055510;28;20474;-89
2022/09/21 05:01:52;;;;;;;10.13;5.60;;;;;;;10.11;83.12;95016.09;5055158;28;20457;-89
2022/09/21 05:04:21;;;;;;;5.40;5.00;;;;;;;10.01;83.16;95009.13;5055072;28;20446;-88
2022/09/21 05:06:47;;;;;;;9.60;6.87;;;;;;;9.97;83.47;95019.03;5042580;28;20467;-88
2022/09/21 05:12:02;;;;;;;10.83;6.63;;;;;;;9.84;83.65;95020.97;5052873;28;20442;-87
2022/09/21 05:14:29;;;;;;;7.30;6.43;;;;;;;9.92;83.61;95010.69;5052964;28;20454;-87
2022/09/21 05:16:56;;;;;;;9.73;7.50;;;;;;;10.00;84.15;95008.28;5053545;28;20490;-87
2022/09/21 05:19:24;;;;;;;12.50;6.97;;;;;;;10.30;83.50;95020.72;5053848;28;20438;-87
2022/09/21 05:21:51;;;;;;;10.03;7.10;;;;;;;10.50;81.15;95012.06;5053951;28;20435;-86
2022/09/21 05:24:18;;;;;;;19.23;8.23;;;;;;;10.67;79.81;95012.44;5054414;28;20468;-85
2022/09/21 05:26:45;;;;;;;8.70;7.80;;;;;;;11.00;79.30;95030.66;5053333;28;20467;-84
2022/09/21 05:29:12;;;;;;;10.60;8.30;;;;;;;11.20;78.03;95031.56;5053946;28;20448;-86
2022/09/21 05:31:46;;;;;;;8.20;7.30;;;;;;;11.25;77.69;95018.88;5053598;28;20811;-84
2022/09/21 05:34:36;;;;;;;9.73;6.70;;;;;;;11.44;77.12;95033.91;5053892;28;20425;-90
2022/09/21 05:37:09;;;;;;;8.10;6.80;;;;;;;11.38;76.15;95019.50;5054043;28;20479;-89
2022/09/21 05:39:37;;;;;;;8.60;6.60;;;;;;;11.32;77.12;95027.09;5054364;28;20958;-89
2022/09/21 05:42:04;;;;;;;10.03;6.03;;;;;;;11.05;76.63;95012.69;5054326;28;20459;-89
2022/09/21 05:44:32;;;;;;;10.50;7.50;;;;;;;11.08;77.82;95022.13;5054510;28;20466;-86
2022/09/21 05:47:02;;;;;;;6.63;6.10;;;;;;;11.41;77.71;95031.53;5049475;28;20463;-88
2022/09/21 05:49:44;;;;;;;9.77;6.70;;;;;;;11.30;76.91;95031.63;5054176;28;20456;-88
2022/09/21 05:52:21;;;;;;;7.40;5.60;;;;;;;11.10;77.43;95020.19;5056433;28;20456;-86
2022/09/21 05:55:01;;;;;;;11.63;7.20;;;;;;;10.98;78.90;95027.28;5058265;28;20455;-89
2022/09/21 05:57:39;;;;;;;10.13;6.93;;;;;;;10.78;78.87;95015.03;5057576;28;20845;-88
2022/09/21 06:00:16;;;;;;;13.53;7.80;;;;;;;11.06;78.73;95029.28;5058350;28;20479;-87
2022/09/21 06:16:10;;;;;;;13.63;7.40;;;;;;;11.35;77.86;95029.44;5037188;28;20461;-89
2022/09/21 06:18:38;;;;;;;17.13;6.77;;;;;;;11.54;77.28;95039.19;5042904;28;20534;-88
2022/09/21 06:21:05;;;;;;;11.37;5.70;;;;;;;11.28;77.68;95039.66;5046119;28;20886;-88
2022/09/21 06:23:32;;;;;;;11.70;6.73;;;;;;;11.46;77.60;95034.59;5056190;28;20826;-89
2022/09/21 06:25:59;;;;;;;10.30;7.00;;;;;;;11.43;77.70;95040.94;5057583;28;20457;-90
2022/09/21 06:28:26;;;;;;;9.43;6.33;;;;;;;11.93;76.57;95034.94;5057925;28;20819;-87
2022/09/21 06:30:55;;;;;;;8.30;6.80;;;;;;;12.34;75.89;95039.97;5058374;28;20442;-88
2022/09/21 06:33:23;;;;;;;6.90;5.80;;;;;;;12.52;73.47;95049.84;5057889;28;20918;-90
2022/09/21 06:35:54;;;;;;;7.57;6.77;;;;;;;12.68;73.66;95036.94;5057267;28;20442;-89
2022/09/21 06:38:21;;;;;;;8.83;6.53;;;;;;;12.70;72.53;95041.09;5057466;28;20477;-89
2022/09/21 06:40:48;;;;;;;9.70;7.00;;;;;;;12.76;72.28;95052.06;5056581;28;20462;-88
2022/09/21 06:43:15;;;;;;;6.43;5.80;;;;;;;12.86;72.31;95051.06;5055667;28;20456;-89
2022/09/21 06:45:42;;;;;;;10.13;7.17;;;;;;;12.96;71.59;95046.63;5054622;28;20461;-88
2022/09/21 06:48:09;;;;;;;10.40;6.47;;;;;;;12.93;71.71;95046.91;5055912;28;20453;-88
2022/09/21 06:50:38;;;;;;;10.37;7.50;;;;;;;12.89;71.77;95052.59;5056255;28;20475;-92
2022/09/21 06:53:05;;;;;;;10.53;6.93;;;;;;;13.09;72.68;95051.59;5057044;28;20453;-89
2022/09/21 06:55:33;;;;;;;9.40;6.80;;;;;;;13.36;72.00;95045.63;5057132;28;20449;-88
2022/09/21 06:58:01;;;;;;;6.47;5.83;;;;;;;14.14;83.47;95044.28;5057393;28;20519;-88
2022/09/21 07:00:29;;;;;;;6.07;4.83;;;;;;;15.65;78.02;95053.06;5057310;28;20906;-87
2022/09/21 07:02:56;;;;;;;8.20;6.70;;;;;;;16.31;66.94;95051.53;5056107;28;20450;-90
2022/09/21 07:05:24;;;;;;;11.30;6.30;;;;;;;16.53;60.12;95044.81;5057405;28;20451;-89
2022/09/21 07:07:57;;;;;;;8.63;6.70;;;;;;;16.71;59.43;95051.63;5056980;28;20457;-88
2022/09/21 07:10:24;;;;;;;12.50;6.03;;;;;;;16.92;58.57;95045.03;5056999;28;20422;-89
2022/09/21 07:12:51;;;;;;;8.00;5.60;;;;;;;17.03;57.85;95044.69;5057453;28;20550;-89
2022/09/21 07:15:20;;;;;;;10.63;8.27;;;;;;;17.32;57.60;95042.38;5057014;28;20514;-88
2022/09/21 07:17:47;;;;;;;6.50;5.90;;;;;;;17.54;56.12;95034.72;5056843;28;20482;-88
2022/09/21 07:20:14;;;;;;;13.40;6.20;;;;;;;17.86;55.81;95031.19;5057101;28;20460;-88
2022/09/21 07:22:41;;;;;;;6.90;3.60;;;;;;;17.92;53.92;95031.31;5056620;28;20492;-88
2022/09/21 07:25:10;;;;;;;3.50;3.00;;;;;;;17.53;56.76;95012.66;5056493;28;20449;-88
2022/09/21 07:27:37;;;;;;;8.47;3.90;;;;;;;17.17;55.84;95030.78;5055510;28;20975;-88
2022/09/21 07:30:06;;;;;;;3.70;2.83;;;;;;;16.55;56.31;95017.16;5055650;28;20464;-88
2022/09/21 07:32:33;;;;;;;3.63;3.10;;;;;;;16.00;58.67;95019.50;5055576;28;20482;-89
2022/09/21 07:35:00;;;;;;;9.30;3.60;;;;;;;15.59;59.53;95031.69;5055520;28;20452;-90
2022/09/21 07:37:27;;;;;;;5.60;4.50;;;;;;;15.25;61.88;95028.97;5055417;28;20481;-90
2022/09/21 07:39:55;;;;;;;5.17;3.83;;;;;;;14.65;62.41;95040.22;5055019;28;20442;-90
2022/09/21 07:42:24;;;;;;;5.20;3.27;;;;;;;14.46;65.06;95032.47;5055772;28;20503;-89
2022/09/21 07:44:52;;;;;;;5.80;3.53;;;;;;;14.42;69.21;95033.69;5055784;28;20480;-89
2022/09/21 07:47:19;;;;;;;4.17;2.53;;;;;;;14.33;66.31;95026.69;5055646;28;20478;-89
2022/09/21 07:49:46;;;;;;;3.80;3.50;;;;;;;14.39;67.64;95031.34;5055224;28;20450;-89
2022/09/21 07:52:15;;;;;;;6.13;4.13;;;;;;;14.50;67.15;95029.38;5055612;28;20496;-93
2022/09/21 07:54:42;;;;;;;3.63;3.17;;;;;;;14.46;65.81;95029.84;5055742;28;20808;-89
2022/09/21 07:59:57;;;;;;;3.20;2.90;;;;;;;14.25;66.76;95027.44;5055292;28;20707;-90
2022/09/21 08:02:24;;;;;;;3.30;3.00;;;;;;;14.18;66.92;95035.13;5055257;28;20456;-90
2022/09/21 08:04:51;;;;;;;6.90;2.80;;;;;;;14.11;67.16;95033.19;5055434;28;20469;-88
2022/09/21 08:07:18;;;;;;;4.00;3.60;;;;;;;14.01;67.93;95035.91;5054225;28;20522;-89
2022/09/21 08:09:48;;;;;;;3.87;2.93;;;;;;;13.99;66.84;95026.47;5054788;28;20457;-88
2022/09/21 08:12:19;;;;;;;4.50;2.60;;;;;;;14.14;67.78;95019.72;5055468;28;21025;-87
2022/09/21 08:14:46;;;;;;;4.90;3.20;;;;;;;14.36;67.97;95023.75;5055019;28;20457;-88
2022/09/21 08:17:17;;;;;;;8.30;3.50;;;;;;;14.34;65.45;95031.81;5055073;28;20481;-89
2022/09/21 08:19:44;;;;;;;3.77;2.90;;;;;;;14.52;72.81;95026.59;5056030;28;20449;-88
2022/09/21 08:22:12;;;;;;;6.20;3.47;;;;;;;14.78;66.11;95037.22;5055845;28;20481;-88
2022/09/21 08:24:43;;;;;;;3.40;3.10;;;;;;;15.00;64.04;95038.53;5056950;28;20905;-89
2022/09/21 08:27:10;;;;;;;3.73;3.43;;;;;;;15.13;64.49;95042.44;5056311;28;20978;-88
2022/09/21 08:29:37;;;;;;;3.10;2.90;;;;;;;15.28;62.83;95036.59;5055942;28;21166;-89
2022/09/21 08:32:04;;;;;;;2.90;2.70;;;;;;;15.31;62.64;95033.63;5052831;28;20838;-90
2022/09/21 08:34:32;;;;;;;4.73;3.57;;;;;;;15.00;61.85;95033.25;5055311;28;20824;-90
2022/09/21 08:36:59;;;;;;;6.00;3.43;;;;;;;14.84;63.07;95024.22;5055626;28;20460;-88
2022/09/21 08:39:26;;;;;;;4.33;3.93;;;;;;;14.77;64.85;95036.38;5053734;28;20453;-88
2022/09/21 08:42:08;;;;;;;3.10;2.83;;;;;;;14.85;64.20;95028.53;5054606;28;20809;-89
2022/09/21 08:44:42;;;;;;;3.37;3.17;;;;;;;14.97;63.65;95028.28;5055644;28;20833;-89
2022/09/21 08:47:15;;;;;;;5.10;3.20;;;;;;;15.01;65.09;95024.34;5054532;28;20453;-87
2022/09/21 08:49:51;;;;;;;3.47;3.10;;;;;;;15.02;63.08;95034.75;5053410;28;20454;-87
2022/09/21 08:52:21;;;;;;;6.00;2.93;;;;;;;14.93;63.81;95030.41;5054705;28;20461;-89
2022/09/21 08:54:54;;;;;;;4.77;3.70;;;;;;;14.99;63.50;95021.84;5052859;28;20461;-88
2022/09/21 08:57:25;;;;;;;3.50;3.20;;;;;;;15.03;63.64;95019.72;5053252;28;20453;-89
2022/09/21 08:59:52;;;;;;;4.57;3.10;;;;;;;15.05;63.48;95018.63;5054863;28;21212;-89
2022/09/21 09:02:38;;;;;;;4.70;3.10;;;;;;;15.17;66.00;95013.91;5055412;28;20433;-87
2022/09/21 09:05:37;;;;;;;6.53;3.10;;;;;;;15.28;61.62;95013.63;5055402;28;20467;-90
2022/09/21 09:08:25;;;;;;;6.90;3.37;;;;;;;15.22;61.83;95016.06;5055254;28;20944;-90
2022/09/21 09:11:02;;;;;;;8.10;3.07;;;;;;;15.18;63.89;95007.63;5054914;28;20799;-89
2022/09/21 09:13:46;;;;;;;3.27;3.07;;;;;;;15.16;61.99;95001.66;5055146;28;20432;-90
2022/09/21 09:16:24;;;;;;;3.70;3.40;;;;;;;15.18;61.73;95007.63;5054508;28;20447;-90
2022/09/21 09:18:54;;;;;;;3.50;3.23;;;;;;;15.26;61.30;95005.03;5054001;28;20477;-91
2022/09/21 09:21:27;;;;;;;2.90;2.70;;;;;;;15.28;59.66;94996.94;5053686;28;20446;-88
2022/09/21 09:23:59;;;;;;;3.17;2.87;;;;;;;15.30;58.57;95003.72;5053859;28;20457;-88
2022/09/21 09:26:32;;;;;;;4.30;3.30;;;;;;;15.36;60.25;94976.69;5053866;28;20811;-89
2022/09/21 09:29:07;;;;;;;4.10;3.80;;;;;;;15.54;59.49;94986.34;5054328;28;20454;-90
2022/09/21 09:31:35;;;;;;;3.83;2.83;;;;;;;15.67;59.92;94984.97;5055001;28;20428;-90
2022/09/21 09:34:11;;;;;;;5.07;2.70;;;;;;;15.69;58.25;94980.34;5054253;28;20498;-91
2022/09/21 09:36:46;;;;;;;3.17;2.90;;;;;;;15.65;57.97;94980.81;5054824;28;20538;-91
2022/09/21 09:39:15;;;;;;;2.43;2.23;;;;;;;15.55;57.25;94980.06;5054510;28;20480;-90
2022/09/21 09:42:16;;;;;;;2.47;2.27;;;;;;;15.57;57.13;94975.44;5053644;28;20810;-90
2022/09/21 09:45:19;;;;;;;2.80;2.60;;;;;;;15.58;58.81;94962.09;4992548;28;20456;-91
2022/09/21 09:48:01;;;;;;;4.87;3.30;;;;;;;15.60;59.40;94968.03;4934387;29;20951;-90
2022/09/21 09:50:30;;;;;;;8.10;2.90;;;;;;;15.63;61.28;94962.47;4935310;29;20463;-90
2022/09/21 09:53:05;;;;;;;4.93;3.23;;;;;;;15.50;59.22;94964.66;4935938;29;20459;-92
2022/09/21 09:55:38;;;;;;;4.40;2.80;;;;;;;15.44;58.67;94965.31;4935419;29;20552;-90
2022/09/21 09:58:07;;;;;;;3.73;3.43;;;;;;;15.46;58.47;94960.69;4935508;29;20494;-91
2022/09/21 10:00:35;;;;;;;4.80;2.20;;;;;;;15.58;57.62;94953.28;4935142;29;20486;-90
2022/09/21 10:03:01;;;;;;;2.93;2.63;;;;;;;15.67;57.27;94952.38;4935847;29;20936;-90
2022/09/21 10:05:33;;;;;;;2.87;2.37;;;;;;;15.60;57.23;94949.53;4935776;29;20462;-91
2022/09/21 10:08:02;;;;;;;2.90;2.70;;;;;;;15.69;57.51;94945.13;4935490;29;20460;-90
2022/09/21 10:10:35;;;;;;;3.93;2.23;;;;;;;15.69;55.61;94947.75;4935507;29;20546;-91
2022/09/21 10:13:23;;;;;;;2.67;2.47;;;;;;;15.76;55.35;94946.97;4935405;29;20472;-91
2022/09/21 10:15:52;;;;;;;2.53;2.30;;;;;;;15.77;55.60;94940.69;4935675;29;20465;-91
2022/09/21 10:18:22;;;;;;;3.63;3.30;;;;;;;15.75;55.17;94941.81;4935356;29;20507;-88
2022/09/21 10:21:00;;;;;;;3.50;1.97;;;;;;;15.70;54.39;94933.56;4944514;28;20950;-87
2022/09/21 10:23:30;;;;;;;4.13;2.60;;;;;;;15.64;56.43;94928.91;4997097;28;20440;-86
2022/09/21 10:26:00;;;;;;;2.27;2.07;;;;;;;15.68;55.18;94930.22;5053395;28;20926;-87
2022/09/21 10:31:56;;;;;;;2.70;2.50;;;;;;;15.48;54.73;94929.63;5053214;28;20399;-86
2022/09/21 10:34:24;;;;;;;7.80;2.37;;;;;;;15.43;55.24;94922.16;5053247;28;20441;-88
2022/09/21 10:36:53;;;;;;;3.17;2.87;;;;;;;15.53;64.06;94919.38;5053628;28;20515;-88
2022/09/21 10:39:23;;;;;;;2.70;2.50;;;;;;;15.79;60.98;94911.41;5057199;28;20840;-87
2022/09/21 10:41:53;;;;;;;3.53;2.10;;;;;;;15.94;56.35;94915.09;5057241;28;20444;-87
2022/09/21 10:44:22;;;;;;;3.63;2.80;;;;;;;16.31;59.96;94911.19;5057240;28;20444;-87
2022/09/21 10:46:50;;;;;;;6.53;2.50;;;;;;;16.52;58.78;94913.34;5056908;28;20440;-88
2022/09/21 10:49:22;;;;;;;2.70;2.20;;;;;;;16.57;52.91;94903.91;5056543;28;20459;-90
2022/09/21 10:51:52;;;;;;;6.00;2.27;;;;;;;16.48;53.04;94891.66;5057907;28;20207;-87
2022/09/21 10:54:25;;;;;;;2.10;1.87;;;;;;;16.41;52.88;94901.25;5057611;28;20440;-88
2022/09/21 10:56:54;;;;;;;1.97;1.87;;;;;;;16.43;52.28;94899.25;5057668;28;20538;-91
2022/09/21 10:59:24;;;;;;;3.33;1.63;;;;;;;16.37;50.57;94887.50;5057465;28;20829;-88
2022/09/21 11:01:53;;;;;;;2.23;2.03;;;;;;;16.25;50.65;94885.38;5057499;28;20455;-89
2022/09/21 11:04:28;;;;;;;3.23;1.80;;;;;;;16.32;50.94;94887.19;5056893;28;20456;-88
2022/09/21 11:07:01;;;;;;;2.90;2.07;;;;;;;16.30;49.36;94888.34;5055941;28;20451;-88
2022/09/21 11:09:36;;;;;;;1.67;1.57;;;;;;;16.21;48.02;94881.38;5055451;28;20455;-89
2022/09/21 11:12:12;;;;;;;2.20;2.00;;;;;;;16.33;48.50;94877.41;5054991;28;20472;-90
2022/09/21 11:14:47;;;;;;;1.90;1.80;;;;;;;16.40;49.01;94879.22;5054050;28;20828;-90
2022/09/21 11:17:22;;;;;;;1.83;1.73;;;;;;;16.50;50.91;94865.00;5055415;28;20453;-86
2022/09/21 11:19:54;;;;;;;1.90;1.60;;;;;;;16.52;48.83;94882.38;5056024;28;20487;-90
2022/09/21 11:22:30;;;;;;;1.87;1.70;;;;;;;16.40;48.93;94879.22;5056999;28;20450;-85
2022/09/21 11:25:14;;;;;;;2.23;2.00;;;;;;;16.40;49.52;94886.34;5057086;28;21046;-89
2022/09/21 11:27:48;;;;;;;2.87;1.77;;;;;;;16.35;49.27;94884.19;5056632;28;20485;-87
2022/09/21 11:30:17;;;;;;;2.13;1.90;;;;;;;16.49;49.82;94885.38;5056688;28;21055;-87
2022/09/21 11:33:18;;;;;;;1.93;1.77;;;;;;;16.63;49.51;94878.56;5057049;28;20457;-89
2022/09/21 11:35:54;;;;;;;2.20;1.80;;;;;;;16.72;50.03;94875.75;5036837;28;20842;-87
2022/09/21 11:38:36;;;;;;;2.10;1.90;;;;;;;16.66;48.48;94878.25;5036888;28;20505;-87
2022/09/21 11:41:29;;;;;;;2.20;1.87;;;;;;;16.43;48.02;94878.06;5036675;28;20446;-87
2022/09/21 11:44:08;;;;;;;2.30;1.60;;;;;;;16.25;48.22;94872.13;5036549;28;20453;-87
2022/09/21 11:46:46;;;;;;;3.20;2.73;;;;;;;16.29;48.76;94866.31;5036869;28;20469;-85
2022/09/21 11:49:43;;;;;;;2.23;2.03;;;;;;;16.09;48.60;94880.88;5035823;28;20465;-87
2022/09/21 11:52:21;;;;;;;2.07;1.93;;;;;;;16.16;48.59;94873.91;5036611;28;20861;-87
2022/09/21 11:55:16;;;;;;;1.97;1.87;;;;;;;16.21;49.35;94879.56;5019036;28;20447;-88
2022/09/21 11:57:50;;;;;;;2.53;2.33;;;;;;;16.21;47.90;94882.22;5036475;28;20450;-88
2022/09/21 12:00:19;;;;;;;1.70;1.60;;;;;;;16.07;47.85;94899.56;5036639;28;20995;-90
2022/09/21 12:03:15;;;;;;;5.37;1.90;;;;;;;15.68;55.97;94898.50;5036311;28;20445;-88
2022/09/21 12:05:50;;;;;;;3.97;1.87;;;;;;;15.36;58.97;94902.66;5035961;28;20452;-87
2022/09/21 12:08:42;;;;;;;1.50;1.37;;;;;;;15.04;59.99;94905.13;5035653;28;20468;-87
2022/09/21 12:11:20;;;;;;;2.07;1.60;;;;;;;14.92;60.46;94912.47;5036236;28;20553;-84
2022/09/21 12:13:57;;;;;;;2.03;1.57;;;;;;;14.69;59.08;94906.03;5036067;28;20459;-85